createdAt,value
2022-11-14T00:02:41.694Z,11.65
2022-11-14T00:05:28.971Z,10.25
2022-11-14T00:08:17.252Z,13.00
2022-11-14T00:11:05.955Z,10.90
2022-11-14T00:13:52.832Z,11.23
2022-11-14T00:16:40.335Z,8.40
2022-11-14T00:19:27.333Z,11.20
2022-11-14T00:22:14.371Z,10.85
2022-11-14T00:25:01.419Z,10.05
2022-11-14T00:27:50.095Z,10.23
2022-11-14T00:30:36.900Z,9.05
2022-11-14T00:33:23.914Z,12.23
2022-11-14T00:36:11.070Z,9.98
2022-11-14T00:38:57.896Z,9.15
2022-11-14T00:41:44.891Z,9.85
2022-11-14T00:44:33.477Z,9.18
2022-11-14T00:47:20.401Z,10.05
2022-11-14T00:50:07.953Z,10.35
2022-11-14T00:52:54.846Z,9.25
2022-11-14T00:55:42.126Z,9.88
2022-11-14T00:58:29.377Z,8.63
2022-11-14T01:01:18.351Z,9.52
2022-11-14T01:04:05.505Z,10.60
2022-11-14T01:06:52.567Z,11.10
2022-11-14T01:09:39.581Z,9.55
2022-11-14T01:12:26.845Z,9.18
2022-11-14T01:15:13.541Z,9.30
2022-11-14T01:18:02.073Z,10.55
2022-11-14T01:20:50.135Z,11.27
2022-11-14T01:23:37.454Z,11.27
2022-11-14T01:26:24.652Z,9.05
2022-11-14T01:29:11.915Z,10.00
2022-11-14T01:31:59.135Z,9.57
2022-11-14T01:34:48.021Z,8.93
2022-11-14T01:37:35.206Z,9.98
2022-11-14T01:40:22.416Z,10.65
2022-11-14T01:43:39.592Z,10.02
2022-11-14T01:46:28.354Z,8.95
2022-11-14T01:49:17.334Z,8.43
2022-11-14T01:52:08.046Z,9.80
2022-11-14T01:54:56.161Z,10.35
2022-11-14T01:57:45.506Z,11.23
2022-11-14T02:00:32.557Z,11.02
2022-11-14T02:03:19.861Z,9.43
2022-11-14T02:06:08.422Z,10.48
2022-11-14T02:08:57.634Z,8.52
2022-11-14T02:11:46.116Z,9.85
2022-11-14T02:14:34.761Z,11.50
2022-11-14T02:17:29.511Z,10.23
2022-11-14T02:20:20.135Z,9.80
2022-11-14T02:23:06.795Z,11.00
2022-11-14T02:25:53.961Z,11.85
2022-11-14T02:28:41.076Z,12.43
2022-11-14T02:31:28.394Z,9.95
2022-11-14T02:34:19.780Z,12.52
2022-11-14T02:37:07.903Z,9.90
2022-11-14T02:39:54.862Z,9.82
2022-11-14T02:42:51.209Z,9.70
2022-11-14T02:45:38.101Z,12.57
2022-11-14T02:48:25.617Z,10.18
2022-11-14T02:51:12.552Z,10.48
2022-11-14T02:54:00.873Z,11.10
2022-11-14T02:56:50.016Z,11.90
2022-11-14T02:59:37.377Z,13.98
2022-11-14T03:02:24.257Z,12.32
2022-11-14T03:05:11.530Z,11.18
2022-11-14T03:08:00.770Z,10.80
2022-11-14T03:10:49.102Z,10.35
2022-11-14T03:13:36.076Z,11.07
2022-11-14T03:16:22.808Z,10.57
2022-11-14T03:19:09.994Z,12.95
2022-11-14T03:21:57.116Z,9.82
2022-11-14T03:24:44.086Z,12.13
2022-11-14T03:27:32.382Z,11.27
2022-11-14T03:30:19.133Z,12.57
2022-11-14T03:33:06.005Z,14.45
2022-11-14T03:35:55.729Z,16.15
2022-11-14T03:38:45.372Z,13.45
2022-11-14T03:41:32.390Z,10.32
2022-11-14T03:44:20.705Z,14.13
2022-11-14T03:47:07.511Z,15.40
2022-11-14T03:49:54.563Z,13.43
2022-11-14T03:52:41.768Z,15.80
2022-11-14T03:55:28.676Z,15.57
2022-11-14T03:58:15.575Z,14.48
2022-11-14T04:01:13.832Z,14.98
2022-11-14T04:04:01.250Z,15.70
2022-11-14T04:06:48.181Z,14.70
2022-11-14T04:09:35.215Z,20.10
2022-11-14T04:12:24.149Z,15.68
2022-11-14T04:15:13.709Z,16.85
2022-11-14T04:18:04.265Z,14.57
2022-11-14T04:20:51.157Z,18.10
2022-11-14T04:23:37.918Z,17.45
2022-11-14T04:26:24.846Z,15.15
2022-11-14T04:29:12.090Z,17.88
2022-11-14T04:32:03.651Z,18.35
2022-11-14T04:34:52.022Z,16.23
2022-11-14T04:37:43.274Z,16.73
2022-11-14T04:40:32.352Z,19.73
2022-11-14T04:43:19.458Z,16.70
2022-11-14T04:46:06.581Z,18.23
2022-11-14T04:48:53.661Z,17.92
2022-11-14T04:51:44.209Z,19.15
2022-11-14T04:54:33.600Z,18.85
2022-11-14T04:57:20.747Z,20.13
2022-11-14T05:00:08.403Z,16.92
2022-11-14T05:02:55.451Z,19.40
2022-11-14T05:05:44.623Z,18.77
2022-11-14T05:08:33.227Z,18.45
2022-11-14T05:11:29.149Z,17.92
2022-11-14T05:14:18.532Z,19.52
2022-11-14T05:17:05.516Z,19.65
2022-11-14T05:19:54.877Z,20.75
2022-11-14T05:22:41.679Z,21.95
2022-11-14T05:25:29.975Z,18.17
2022-11-14T05:28:23.434Z,19.42
2022-11-14T05:31:13.738Z,19.73
2022-11-14T05:34:00.497Z,19.65
2022-11-14T05:36:47.417Z,19.85
2022-11-14T05:39:34.124Z,19.48
2022-11-14T05:42:29.467Z,19.90
2022-11-14T05:45:16.620Z,20.33
2022-11-14T05:48:03.509Z,22.08
2022-11-14T05:50:54.531Z,19.25
2022-11-14T05:53:57.776Z,20.08
2022-11-14T05:56:47.347Z,23.42
2022-11-14T05:59:35.489Z,23.58
2022-11-14T06:02:22.465Z,21.60
2022-11-14T06:05:09.685Z,19.02
2022-11-14T06:07:57.320Z,22.45
2022-11-14T06:10:44.305Z,22.00
2022-11-14T06:13:31.785Z,22.63
2022-11-14T06:16:23.313Z,18.65
2022-11-14T06:19:12.668Z,21.20
2022-11-14T06:21:59.395Z,22.95
2022-11-14T06:24:47.446Z,22.77
2022-11-14T06:27:36.478Z,22.42
2022-11-14T06:30:23.767Z,22.88
2022-11-14T06:33:14.183Z,22.55
2022-11-14T06:36:01.459Z,20.77
2022-11-14T06:38:48.534Z,21.25
2022-11-14T06:41:35.556Z,22.15
2022-11-14T06:44:26.442Z,20.25
2022-11-14T06:47:16.736Z,21.08
2022-11-14T06:50:06.104Z,22.02
2022-11-14T06:52:53.086Z,18.77
2022-11-14T06:55:39.964Z,22.30
2022-11-14T06:58:27.944Z,20.92
2022-11-14T07:01:18.108Z,22.50
2022-11-14T07:04:11.798Z,20.92
2022-11-14T07:06:59.954Z,21.67
2022-11-14T07:09:47.033Z,25.80
2022-11-14T07:12:33.886Z,20.88
2022-11-14T07:15:20.939Z,22.25
2022-11-14T07:18:07.788Z,23.75
2022-11-14T07:21:01.154Z,20.67
2022-11-14T07:23:49.424Z,21.75
2022-11-14T07:26:36.210Z,21.27
2022-11-14T07:29:23.278Z,25.15
2022-11-14T07:32:10.643Z,22.00
2022-11-14T07:35:06.876Z,20.88
2022-11-14T07:37:54.461Z,22.17
2022-11-14T07:40:42.910Z,22.15
2022-11-14T07:43:30.207Z,22.00
2022-11-14T07:46:18.715Z,20.95
2022-11-14T07:49:05.499Z,21.75
2022-11-14T07:51:52.683Z,24.45
2022-11-14T07:54:39.694Z,22.60
2022-11-14T07:57:27.764Z,22.10
2022-11-14T08:00:19.620Z,24.40
2022-11-14T08:03:08.291Z,21.42
2022-11-14T08:06:01.398Z,19.77
2022-11-14T08:08:53.143Z,20.25
2022-11-14T08:11:49.379Z,21.95
2022-11-14T08:14:37.686Z,24.70
2022-11-14T08:17:24.870Z,23.08
2022-11-14T08:20:12.228Z,20.23
2022-11-14T08:23:05.663Z,20.70
2022-11-14T08:25:52.767Z,21.58
2022-11-14T08:28:39.748Z,23.13
2022-11-14T08:31:28.104Z,22.20
2022-11-14T08:34:14.966Z,19.92
2022-11-14T08:37:03.119Z,21.05
2022-11-14T08:39:50.173Z,19.05
2022-11-14T08:42:37.562Z,18.42
2022-11-14T08:45:24.389Z,18.33
2022-11-14T08:48:12.874Z,21.88
2022-11-14T08:51:00.504Z,28.20
2022-11-14T08:53:51.640Z,17.30
2022-11-14T08:56:39.464Z,18.88
2022-11-14T08:59:26.476Z,18.52
2022-11-14T09:02:13.764Z,19.98
2022-11-14T09:05:02.276Z,16.65
2022-11-14T09:07:49.123Z,18.40
2022-11-14T09:10:36.649Z,18.65
2022-11-14T09:13:28.594Z,17.63
2022-11-14T09:16:18.006Z,16.13
2022-11-14T09:19:07.548Z,19.67
2022-11-14T09:21:55.839Z,18.52
2022-11-14T09:24:42.923Z,18.92
2022-11-14T09:27:29.946Z,16.15
2022-11-14T09:30:19.538Z,16.00
2022-11-14T09:33:11.461Z,16.65
2022-11-14T09:35:59.465Z,18.20
2022-11-14T09:38:47.958Z,16.25
2022-11-14T09:41:43.369Z,16.15
2022-11-14T09:44:48.813Z,19.90
2022-11-14T09:47:40.444Z,15.40
2022-11-14T09:50:31.724Z,14.35
2022-11-14T09:53:23.076Z,16.05
2022-11-14T09:56:26.075Z,15.82
2022-11-14T09:59:14.209Z,15.25
2022-11-14T10:02:07.708Z,17.38
2022-11-14T10:05:03.458Z,15.15
2022-11-14T10:08:02.601Z,17.48
2022-11-14T10:10:54.276Z,17.25
2022-11-14T10:13:56.823Z,18.45
2022-11-14T10:16:47.555Z,15.00
2022-11-14T10:19:42.955Z,16.42
2022-11-14T10:22:45.636Z,15.98
2022-11-14T10:25:43.703Z,18.63
2022-11-14T10:28:35.713Z,14.82
2022-11-14T10:31:33.202Z,15.10
2022-11-14T10:34:26.524Z,18.65
2022-11-14T10:37:17.574Z,15.32
2022-11-14T10:40:15.622Z,16.35
2022-11-14T10:43:05.281Z,14.95
2022-11-14T10:45:54.097Z,15.32
2022-11-14T10:48:42.794Z,14.20
2022-11-14T10:51:33.818Z,16.58
2022-11-14T10:54:23.867Z,17.25
2022-11-14T10:57:16.414Z,14.63
2022-11-14T11:00:03.665Z,12.60
2022-11-14T11:02:51.983Z,17.52
2022-11-14T11:05:47.296Z,16.05
2022-11-14T11:09:00.084Z,15.32
2022-11-14T11:11:54.329Z,13.93
2022-11-14T11:14:41.642Z,13.85
2022-11-14T11:17:35.071Z,13.60
2022-11-14T11:20:27.479Z,15.20
2022-11-14T11:23:20.383Z,13.55
2022-11-14T11:26:09.713Z,15.32
2022-11-14T11:29:04.427Z,15.07
2022-11-14T11:31:52.804Z,12.80
2022-11-14T11:34:39.676Z,13.32
2022-11-14T11:40:22.076Z,13.93
2022-11-14T11:46:23.308Z,15.48
2022-11-14T11:49:15.074Z,16.92
2022-11-14T11:52:04.976Z,13.85
2022-11-14T11:54:54.222Z,14.45
2022-11-14T11:57:45.518Z,13.90
2022-11-14T12:00:34.022Z,15.63
2022-11-14T12:03:21.977Z,15.30
2022-11-14T12:06:13.199Z,15.65
2022-11-14T12:09:10.175Z,16.25
2022-11-14T12:11:59.608Z,12.85
2022-11-14T12:15:05.606Z,13.40
2022-11-14T12:18:07.399Z,13.82
2022-11-14T12:21:07.517Z,12.88
2022-11-14T12:24:08.947Z,12.77
2022-11-14T12:27:03.620Z,16.13
2022-11-14T12:29:56.821Z,13.57
2022-11-14T12:32:45.907Z,14.25
2022-11-14T12:35:35.101Z,14.95
2022-11-14T12:38:22.669Z,16.50
2022-11-14T12:41:10.961Z,12.90
2022-11-14T12:44:12.947Z,16.13
2022-11-14T12:47:18.406Z,17.00
2022-11-14T12:50:07.302Z,17.33
2022-11-14T12:52:56.596Z,13.05
2022-11-14T12:55:59.445Z,13.80
2022-11-14T12:58:56.035Z,15.55
2022-11-14T13:01:48.762Z,15.27
2022-11-14T13:04:39.935Z,13.55
2022-11-14T13:07:34.382Z,14.30
2022-11-14T13:10:27.883Z,15.13
2022-11-14T13:13:33.800Z,13.15
2022-11-14T13:16:39.448Z,15.00
2022-11-14T13:19:44.493Z,15.07
2022-11-14T13:22:38.432Z,15.50
2022-11-14T13:25:26.958Z,15.95
2022-11-14T13:28:32.368Z,13.88
2022-11-14T13:31:20.964Z,14.30
2022-11-14T13:34:22.570Z,12.93
2022-11-14T13:37:17.033Z,13.65
2022-11-14T13:40:09.566Z,16.55
2022-11-14T13:43:01.213Z,14.27
2022-11-14T13:45:54.185Z,14.35
2022-11-14T13:48:50.159Z,14.40
2022-11-14T13:51:43.477Z,15.48
2022-11-14T13:54:31.889Z,19.83
2022-11-14T13:57:24.050Z,15.60
2022-11-14T14:00:20.011Z,17.02
2022-11-14T14:03:19.922Z,27.10
2022-11-14T14:06:14.079Z,19.77
2022-11-14T14:09:06.685Z,17.02
2022-11-14T14:12:00.372Z,16.38
2022-11-14T14:15:02.468Z,15.73
2022-11-14T14:17:56.654Z,18.98
2022-11-14T14:20:47.160Z,20.80
2022-11-14T14:23:39.184Z,17.55
2022-11-14T14:26:27.869Z,18.58
2022-11-14T14:29:21.386Z,15.50
2022-11-14T14:32:08.918Z,16.48
2022-11-14T14:34:59.488Z,15.43
2022-11-14T14:37:51.834Z,15.52
2022-11-14T14:40:40.024Z,20.30
2022-11-14T14:43:30.920Z,18.63
2022-11-14T14:46:17.643Z,23.08
2022-11-14T14:49:06.443Z,31.90
2022-11-14T14:51:58.597Z,31.95
2022-11-14T14:54:55.635Z,34.40
2022-11-14T14:57:42.719Z,34.15
2022-11-14T15:00:30.101Z,33.42
2022-11-14T15:03:17.010Z,34.33
2022-11-14T15:06:05.962Z,30.98
2022-11-14T15:08:54.321Z,30.05
2022-11-14T15:11:43.184Z,34.35
2022-11-14T15:14:31.612Z,30.33
2022-11-14T15:17:19.067Z,32.67
2022-11-14T15:20:06.616Z,33.90
2022-11-14T15:23:07.371Z,35.55
2022-11-14T15:26:03.889Z,33.92
2022-11-14T15:28:51.648Z,37.42
2022-11-14T15:31:38.644Z,38.15
2022-11-14T15:34:27.539Z,37.30
2022-11-14T15:37:21.202Z,38.97
2022-11-14T15:40:18.908Z,37.03
2022-11-14T15:43:24.780Z,36.10
2022-11-14T15:46:26.740Z,35.30
2022-11-14T15:49:22.040Z,36.03
2022-11-14T15:52:19.375Z,35.95
2022-11-14T15:55:11.178Z,36.75
2022-11-14T15:58:21.554Z,36.70
2022-11-14T16:01:05.807Z,71.93
2022-11-14T16:03:53.008Z,36.40
2022-11-14T16:06:41.638Z,45.90
2022-11-14T16:09:28.832Z,37.53
2022-11-14T16:12:15.565Z,32.55
2022-11-14T16:15:02.692Z,32.33
2022-11-14T16:17:50.243Z,33.20
2022-11-14T16:20:39.725Z,34.88
2022-11-14T16:23:27.999Z,35.00
2022-11-14T16:26:15.644Z,34.72
2022-11-14T16:29:02.539Z,33.17
2022-11-14T16:31:51.866Z,35.33
2022-11-14T16:34:38.811Z,35.70
2022-11-14T16:37:26.001Z,34.55
2022-11-14T16:40:16.303Z,31.92
2022-11-14T16:43:04.184Z,30.23
2022-11-14T16:45:51.013Z,29.65
2022-11-14T16:48:40.806Z,33.03
2022-11-14T16:54:37.115Z,35.35
2022-11-14T16:57:27.554Z,32.40
2022-11-14T17:00:19.944Z,31.73
2022-11-14T17:03:06.712Z,28.80
2022-11-14T17:06:00.275Z,28.95
2022-11-14T17:08:49.707Z,29.10
2022-11-14T17:11:39.490Z,29.63
2022-11-14T17:14:30.279Z,31.95
2022-11-14T17:17:17.265Z,29.05
2022-11-14T17:20:03.962Z,30.80
2022-11-14T17:22:51.236Z,32.80
2022-11-14T17:25:38.006Z,30.33
2022-11-14T17:28:25.234Z,28.38
2022-11-14T17:31:16.186Z,32.22
2022-11-14T17:34:08.357Z,35.80
2022-11-14T17:36:57.996Z,32.00
2022-11-14T17:39:45.403Z,32.83
2022-11-14T17:42:32.212Z,33.50
2022-11-14T17:45:23.047Z,35.10
2022-11-14T17:48:11.596Z,32.80
2022-11-14T17:51:00.985Z,32.90
2022-11-14T17:53:47.927Z,30.70
2022-11-14T17:56:44.329Z,29.85
2022-11-14T17:59:35.282Z,32.05
2022-11-14T18:02:22.390Z,27.45
2022-11-14T18:05:10.787Z,29.38
2022-11-14T18:07:57.723Z,27.70
2022-11-14T18:10:53.227Z,28.80
2022-11-14T18:13:41.190Z,25.88
2022-11-14T18:16:44.547Z,24.40
2022-11-14T18:19:42.000Z,26.63
2022-11-14T18:22:32.644Z,24.00
2022-11-14T18:25:23.561Z,24.77
2022-11-14T18:28:12.615Z,20.52
2022-11-14T18:31:00.056Z,23.55
2022-11-14T18:33:49.327Z,19.02
2022-11-14T18:36:37.563Z,23.20
2022-11-14T18:39:28.963Z,27.63
2022-11-14T18:42:16.665Z,25.45
2022-11-14T18:45:03.850Z,24.50
2022-11-14T18:47:50.966Z,21.90
2022-11-14T18:50:38.017Z,20.75
2022-11-14T18:53:30.198Z,23.95
2022-11-14T18:56:19.441Z,20.52
2022-11-14T18:59:06.615Z,20.98
2022-11-14T19:01:59.395Z,22.35
2022-11-14T19:04:46.733Z,15.43
2022-11-14T19:07:33.739Z,20.00
2022-11-14T19:10:27.767Z,18.00
2022-11-14T19:13:18.344Z,22.65
2022-11-14T19:16:09.898Z,21.55
2022-11-14T19:18:57.017Z,33.83
2022-11-14T19:21:44.042Z,22.55
2022-11-14T19:24:35.157Z,21.95
2022-11-14T19:27:28.076Z,25.40
2022-11-14T19:30:21.309Z,24.58
2022-11-14T19:33:13.066Z,23.70
2022-11-14T19:36:00.881Z,25.52
2022-11-14T19:38:48.140Z,25.13
2022-11-14T19:41:39.662Z,29.50
2022-11-14T19:44:27.495Z,24.25
2022-11-14T19:47:15.847Z,29.52
2022-11-14T19:50:05.707Z,27.38
2022-11-14T19:52:53.093Z,29.75
2022-11-14T19:55:40.561Z,30.73
2022-11-14T19:58:27.952Z,28.42
2022-11-14T20:01:18.093Z,25.60
2022-11-14T20:04:07.354Z,26.35
2022-11-14T20:06:57.179Z,23.80
2022-11-14T20:09:43.733Z,23.42
2022-11-14T20:12:33.294Z,25.83
2022-11-14T20:15:24.739Z,23.90
2022-11-14T20:18:12.145Z,26.10
2022-11-14T20:21:03.613Z,23.88
2022-11-14T20:23:50.972Z,28.95
2022-11-14T20:26:42.145Z,28.50
2022-11-14T20:29:30.712Z,28.17
2022-11-14T20:32:17.410Z,28.30
2022-11-14T20:35:05.019Z,26.52
2022-11-14T20:37:53.306Z,27.73
2022-11-14T20:40:40.788Z,29.90
2022-11-14T20:43:30.068Z,26.27
2022-11-14T20:46:18.198Z,29.50
2022-11-14T20:49:05.189Z,28.15
2022-11-14T20:51:52.538Z,28.27
2022-11-14T20:54:41.066Z,33.20
2022-11-14T20:57:28.487Z,33.83
2022-11-14T21:00:18.231Z,33.22
2022-11-14T21:03:09.845Z,27.05
2022-11-14T21:05:58.988Z,32.75
2022-11-14T21:08:46.002Z,31.38
2022-11-14T21:11:34.340Z,31.60
2022-11-14T21:14:21.580Z,33.58
2022-11-14T21:17:10.760Z,29.55
2022-11-14T21:19:57.620Z,30.25
2022-11-14T21:22:44.569Z,33.95
2022-11-14T21:25:31.730Z,31.20
2022-11-14T21:28:20.074Z,31.88
2022-11-14T21:31:14.735Z,29.35
2022-11-14T21:34:04.825Z,28.08
2022-11-14T21:36:51.956Z,35.38
2022-11-14T21:39:38.883Z,29.15
2022-11-14T21:42:26.000Z,29.20
2022-11-14T21:45:16.704Z,30.52
2022-11-14T21:48:03.723Z,36.05
2022-11-14T21:50:50.857Z,33.45
2022-11-14T21:53:38.986Z,33.60
2022-11-14T21:56:27.532Z,27.15
2022-11-14T21:59:18.946Z,36.47
2022-11-14T22:02:28.277Z,34.33
2022-11-14T22:05:15.639Z,39.70
2022-11-14T22:08:02.419Z,41.95
2022-11-14T22:10:49.818Z,37.08
2022-11-14T22:13:39.289Z,35.30
2022-11-14T22:16:27.479Z,36.80
2022-11-14T22:19:15.590Z,38.47
2022-11-14T22:22:03.022Z,41.45
2022-11-14T22:24:49.855Z,38.38
2022-11-14T22:27:37.434Z,40.13
2022-11-14T22:30:26.816Z,36.65
2022-11-14T22:33:13.918Z,34.92
2022-11-14T22:36:09.042Z,35.03
2022-11-14T22:38:58.863Z,42.47
2022-11-14T22:41:45.334Z,38.45
2022-11-14T22:44:32.759Z,40.40
2022-11-14T22:47:21.985Z,43.58
2022-11-14T22:50:09.733Z,36.58
2022-11-14T22:52:57.749Z,39.33
2022-11-14T22:55:48.981Z,40.60
2022-11-14T22:58:36.558Z,42.60
2022-11-14T23:01:29.782Z,39.78
2022-11-14T23:04:16.605Z,45.63
2022-11-14T23:07:03.486Z,40.30
2022-11-14T23:09:51.963Z,40.38
2022-11-14T23:12:38.967Z,51.97
2022-11-14T23:15:26.320Z,42.00
2022-11-14T23:18:13.312Z,44.67
2022-11-14T23:21:05.017Z,40.50
2022-11-14T23:23:56.377Z,51.42
2022-11-14T23:26:44.625Z,49.05
2022-11-14T23:29:31.285Z,41.70
2022-11-14T23:32:18.310Z,40.15
2022-11-14T23:35:05.576Z,43.28
2022-11-14T23:37:54.932Z,49.88
2022-11-14T23:40:44.404Z,46.30
2022-11-14T23:43:33.133Z,41.67
2022-11-14T23:46:20.114Z,40.53
2022-11-14T23:49:07.099Z,37.45
2022-11-14T23:51:58.778Z,49.28
2022-11-14T23:54:45.742Z,44.17
2022-11-14T23:57:33.127Z,37.45
